Terminal Aerodrome Forecast
Issued by NWS

Home | Current Version | Previous Version | Text Only | Print | Product List | Glossary On
Versions: 1 2 3 4 5 6 7 8 9 10 11 12 13 14 15 16 17 18 19 20 21 22 23 24 25
000
FTUS46 KLOX 310300 AAA
TAFLAX
TAF AMD
KLAX 310353Z 3104/0106 22004KT P6SM SCT080 SCT110 BKN200
     FM310700 VRB03KT P6SM SCT060 BKN120
     FM311300 VRB03KT P6SM BKN020 BKN100
     FM311900 12004KT P6SM SCT025 SCT250
     FM312100 25007KT P6SM SCT250
     FM312300 25012KT P6SM SCT250
     FM010300 26004KT P6SM SKC=

USA.gov is the U.S. government's official web portal to all federal, state and local government web resources and services.